Time;durP1;ratioP1;P1;durP2;ratioP2;P2;SDS_P1;SDS_P2;PMS_P1;PMS_P2;Temp;Humidity;BMP_temperature;BMP_pressure;BME280_temperature;BME280_humidity;BME280_pressure;Samples;Min_cycle;Max_cycle;Signal;HPM_P1;HPM_P2
2022/01/01 00:00:42;;;;;;;31.23;13.30;;;11.70;99.90;;;;;;5013406;28;20081;-79
2022/01/01 00:03:08;;;;;;;28.90;12.45;;;11.70;99.90;;;;;;5014721;28;20080;-79
2022/01/01 00:05:33;;;;;;;30.45;12.52;;;11.60;99.90;;;;;;5014313;28;20092;-77
2022/01/01 00:08:01;;;;;;;30.38;13.63;;;11.60;99.90;;;;;;5026079;28;20055;-79
2022/01/01 00:10:27;;;;;;;31.42;12.50;;;11.60;99.90;;;;;;5033840;28;20497;-80
2022/01/01 00:12:52;;;;;;;26.90;12.70;;;11.60;99.90;;;;;;5034140;28;20061;-77
2022/01/01 00:15:19;;;;;;;26.98;12.85;;;11.60;99.90;;;;;;5033160;28;20057;-78
2022/01/01 00:17:45;;;;;;;32.00;11.82;;;11.60;99.90;;;;;;5034186;28;20083;-79
2022/01/01 00:20:12;;;;;;;31.75;12.98;;;11.60;99.90;;;;;;5033992;28;20053;-79
2022/01/01 00:22:39;;;;;;;33.20;12.80;;;11.60;99.90;;;;;;5033905;28;20132;-77
2022/01/01 00:25:06;;;;;;;30.55;12.90;;;11.60;99.90;;;;;;5032935;28;20125;-79
2022/01/01 00:27:32;;;;;;;29.73;13.00;;;11.60;99.90;;;;;;5032738;28;20049;-79
2022/01/01 00:29:58;;;;;;;35.28;14.02;;;11.60;99.90;;;;;;5032931;28;20041;-78
2022/01/01 00:32:24;;;;;;;40.28;14.98;;;11.60;99.90;;;;;;5022317;28;20085;-79
2022/01/01 00:34:52;;;;;;;42.00;21.38;;;11.60;99.90;;;;;;5013727;28;20096;-76
2022/01/01 00:37:19;;;;;;;49.70;23.85;;;11.60;99.90;;;;;;5016624;28;20045;-78
2022/01/01 00:39:45;;;;;;;48.13;25.08;;;11.60;99.90;;;;;;5033469;28;20089;-78
2022/01/01 00:42:10;;;;;;;61.97;32.22;;;11.60;99.90;;;;;;5033435;28;20510;-78
2022/01/01 00:44:36;;;;;;;76.00;35.10;;;11.60;99.90;;;;;;5031070;28;20577;-77
2022/01/01 00:47:03;;;;;;;63.15;29.95;;;11.60;99.90;;;;;;5033036;28;20084;-79
2022/01/01 00:49:29;;;;;;;61.75;29.48;;;11.60;99.90;;;;;;5032444;28;20049;-79
2022/01/01 00:51:55;;;;;;;65.03;28.98;;;11.60;99.90;;;;;;5032691;28;20049;-79
2022/01/01 00:54:21;;;;;;;53.05;26.52;;;11.60;99.90;;;;;;5032070;28;20411;-79
2022/01/01 00:56:47;;;;;;;52.55;25.08;;;11.60;99.90;;;;;;5032779;28;20052;-79
2022/01/01 00:59:12;;;;;;;48.45;23.20;;;11.60;99.90;;;;;;5032911;28;20152;-79
2022/01/01 01:01:38;;;;;;;52.95;23.33;;;11.60;99.90;;;;;;5031634;28;20107;-78
2022/01/01 01:04:04;;;;;;;55.30;24.65;;;11.50;99.90;;;;;;5031372;28;20490;-79
2022/01/01 01:06:31;;;;;;;53.05;24.38;;;11.50;99.90;;;;;;5029062;28;20049;-80
2022/01/01 01:08:59;;;;;;;52.28;24.85;;;11.50;99.90;;;;;;5011893;28;20041;-78
2022/01/01 01:11:26;;;;;;;57.63;25.98;;;11.50;99.90;;;;;;5029515;28;20050;-79
2022/01/01 01:14:00;;;;;;;53.28;23.05;;;11.50;99.90;;;;;;5029772;28;20053;-79
2022/01/01 01:16:27;;;;;;;54.05;25.40;;;11.50;99.90;;;;;;5031181;28;20081;-78
2022/01/01 01:18:54;;;;;;;50.30;24.65;;;11.50;99.90;;;;;;5031803;28;20084;-79
2022/01/01 01:21:23;;;;;;;58.80;25.00;;;11.50;99.90;;;;;;5032398;28;20053;-78
2022/01/01 01:23:50;;;;;;;53.80;23.67;;;11.40;99.90;;;;;;5031791;28;20046;-80
2022/01/01 01:26:16;;;;;;;51.92;23.17;;;11.40;99.90;;;;;;5031466;28;20057;-78
2022/01/01 01:28:48;;;;;;;64.72;25.10;;;11.40;99.90;;;;;;5031451;28;20045;-79
2022/01/01 01:31:14;;;;;;;59.72;25.38;;;11.40;99.90;;;;;;5031584;28;20042;-78
2022/01/01 01:33:40;;;;;;;47.58;23.40;;;11.40;99.90;;;;;;5031394;28;20072;-79
2022/01/01 01:36:06;;;;;;;54.20;24.67;;;11.40;99.90;;;;;;5031623;28;20089;-80
2022/01/01 01:38:36;;;;;;;50.90;25.98;;;11.40;99.90;;;;;;5030263;28;20046;-79
2022/01/01 01:41:03;;;;;;;56.08;25.25;;;11.40;99.90;;;;;;5032396;28;20053;-78
2022/01/01 01:43:29;;;;;;;60.25;28.23;;;11.30;99.90;;;;;;5030645;28;20042;-81
2022/01/01 01:45:55;;;;;;;60.83;28.10;;;11.30;99.90;;;;;;5031975;28;20076;-78
2022/01/01 01:48:20;;;;;;;60.55;28.60;;;11.30;99.90;;;;;;5032248;28;20397;-80
2022/01/01 01:50:46;;;;;;;67.28;28.58;;;11.30;99.90;;;;;;5032388;28;20522;-79
2022/01/01 01:53:12;;;;;;;58.40;29.33;;;11.30;99.90;;;;;;5031983;28;20038;-79
2022/01/01 01:55:38;;;;;;;61.85;27.80;;;11.20;99.90;;;;;;5031866;28;20544;-77
2022/01/01 01:58:04;;;;;;;67.95;28.80;;;11.20;99.90;;;;;;5031256;28;20091;-79
2022/01/01 02:03:14;;;;;;;59.05;26.70;;;11.30;99.90;;;;;;5032200;28;20060;-78
2022/01/01 02:05:40;;;;;;;64.20;30.05;;;11.30;99.90;;;;;;5031185;28;20049;-78
2022/01/01 02:08:06;;;;;;;65.95;31.08;;;11.30;99.90;;;;;;5030159;28;20489;-79
2022/01/01 02:10:33;;;;;;;66.13;28.45;;;11.20;99.90;;;;;;5031069;28;20132;-78
2022/01/01 02:13:05;;;;;;;66.22;29.60;;;11.20;99.90;;;;;;5032119;28;20053;-79
2022/01/01 02:18:05;;;;;;;65.15;30.80;;;11.20;99.90;;;;;;5032013;28;20060;-79
2022/01/01 02:20:31;;;;;;;70.55;30.58;;;11.20;99.90;;;;;;5031721;28;20049;-78
2022/01/01 02:23:00;;;;;;;75.65;33.58;;;11.10;99.90;;;;;;5031481;28;20045;-79
2022/01/01 02:25:27;;;;;;;71.07;33.05;;;11.20;99.90;;;;;;5031884;28;20053;-79
2022/01/01 02:27:52;;;;;;;68.80;34.58;;;11.20;99.90;;;;;;5031893;28;20045;-78
2022/01/01 02:30:19;;;;;;;74.28;34.40;;;11.20;99.90;;;;;;5031859;28;20492;-79
2022/01/01 02:32:44;;;;;;;77.18;34.30;;;11.10;99.90;;;;;;5018033;28;20066;-77
2022/01/01 02:35:12;;;;;;;76.20;35.50;;;11.10;99.90;;;;;;5012157;28;20506;-78
2022/01/01 02:37:39;;;;;;;77.75;34.25;;;11.20;99.90;;;;;;5011589;28;20045;-78
2022/01/01 02:40:07;;;;;;;67.90;33.45;;;11.20;99.90;;;;;;5011913;28;20563;-79
2022/01/01 02:42:33;;;;;;;78.47;36.00;;;11.20;99.90;;;;;;5012097;28;20137;-79
2022/01/01 02:45:00;;;;;;;75.55;35.45;;;11.20;99.90;;;;;;5012151;28;20513;-79
2022/01/01 02:47:26;;;;;;;76.97;35.63;;;11.20;99.90;;;;;;5011836;28;20107;-80
2022/01/01 02:49:52;;;;;;;78.70;37.65;;;11.20;99.90;;;;;;5011987;28;20042;-79
2022/01/01 02:52:18;;;;;;;78.35;36.72;;;11.20;99.90;;;;;;5011936;28;20057;-79
2022/01/01 02:54:44;;;;;;;83.57;37.90;;;11.20;99.90;;;;;;5011482;28;20046;-79
2022/01/01 02:57:09;;;;;;;87.68;41.25;;;11.20;99.90;;;;;;5010768;28;20085;-81
2022/01/01 02:59:35;;;;;;;83.00;38.53;;;11.20;99.90;;;;;;5011371;28;20144;-77
2022/01/01 03:02:01;;;;;;;88.70;40.85;;;11.20;99.90;;;;;;5010274;28;20065;-78
2022/01/01 03:04:26;;;;;;;96.85;41.08;;;11.20;99.90;;;;;;5011469;28;20050;-79
2022/01/01 03:06:54;;;;;;;86.72;40.20;;;11.20;99.90;;;;;;5015275;28;20053;-78
2022/01/01 03:09:23;;;;;;;93.90;44.40;;;11.20;99.90;;;;;;5034458;28;20429;-79
2022/01/01 03:11:49;;;;;;;96.47;40.78;;;11.20;99.90;;;;;;5035246;28;20191;-77
2022/01/01 03:14:17;;;;;;;81.35;41.22;;;11.20;99.90;;;;;;5034423;28;20167;-78
2022/01/01 03:16:47;;;;;;;92.57;40.40;;;11.20;99.90;;;;;;5035282;28;20045;-78
2022/01/01 03:19:14;;;;;;;96.35;44.65;;;11.10;99.90;;;;;;5034982;28;20050;-78
2022/01/01 03:21:40;;;;;;;80.78;39.85;;;11.10;99.90;;;;;;5035263;28;20402;-78
2022/01/01 03:24:06;;;;;;;93.70;43.63;;;11.10;99.90;;;;;;5035106;28;20041;-78
2022/01/01 03:26:32;;;;;;;86.60;40.85;;;11.10;99.90;;;;;;5033991;28;20060;-79
2022/01/01 03:28:58;;;;;;;89.45;40.72;;;11.00;99.90;;;;;;5034845;28;20068;-78
2022/01/01 03:31:26;;;;;;;100.93;44.50;;;11.00;99.90;;;;;;5034890;28;20041;-79
2022/01/01 03:33:53;;;;;;;92.18;43.38;;;11.00;99.90;;;;;;5034465;28;20057;-77
2022/01/01 03:36:19;;;;;;;101.57;43.80;;;11.00;99.90;;;;;;5033878;28;20053;-79
2022/01/01 03:38:45;;;;;;;102.78;45.15;;;11.00;99.90;;;;;;5034643;28;20049;-78
2022/01/01 03:41:11;;;;;;;101.53;44.65;;;11.10;99.90;;;;;;5034449;28;20067;-79
2022/01/01 03:43:36;;;;;;;98.30;43.92;;;11.00;99.90;;;;;;5033726;28;20079;-78
2022/01/01 03:46:02;;;;;;;89.97;43.40;;;11.00;99.90;;;;;;5034752;28;20053;-79
2022/01/01 03:48:28;;;;;;;96.82;43.80;;;11.00;99.90;;;;;;5033725;28;20375;-79
2022/01/01 03:50:54;;;;;;;102.45;43.50;;;11.10;99.90;;;;;;5034842;28;20049;-78
2022/01/01 03:53:19;;;;;;;100.88;42.33;;;11.10;99.90;;;;;;5034701;28;20053;-78
2022/01/01 03:55:45;;;;;;;91.82;43.60;;;11.10;99.90;;;;;;5034494;28;20124;-80
2022/01/01 03:58:11;;;;;;;94.28;43.63;;;11.10;99.90;;;;;;5034611;28;20363;-77
2022/01/01 04:00:39;;;;;;;101.35;43.72;;;11.10;99.90;;;;;;5034293;28;20075;-79
2022/01/01 04:03:10;;;;;;;92.97;41.70;;;11.10;99.90;;;;;;5034485;28;20100;-79
2022/01/01 04:05:37;;;;;;;97.75;43.75;;;11.10;99.90;;;;;;5034450;28;20128;-78
2022/01/01 04:08:04;;;;;;;95.63;44.38;;;11.10;99.90;;;;;;5020070;28;20054;-79
2022/01/01 04:10:31;;;;;;;101.53;41.35;;;11.10;99.90;;;;;;5013431;28;20058;-79
2022/01/01 04:13:00;;;;;;;94.00;42.33;;;11.10;99.90;;;;;;5014493;28;20398;-80
2022/01/01 04:15:29;;;;;;;86.80;42.47;;;11.10;99.90;;;;;;5013894;28;20057;-80
2022/01/01 04:17:58;;;;;;;92.18;44.72;;;11.10;99.90;;;;;;5014204;28;20384;-79
2022/01/01 04:20:24;;;;;;;94.07;42.33;;;11.10;99.90;;;;;;5014265;28;20093;-79
2022/01/01 04:22:54;;;;;;;93.18;42.55;;;11.20;99.90;;;;;;5013124;28;20490;-79
2022/01/01 04:25:21;;;;;;;95.72;44.78;;;11.20;99.90;;;;;;5014362;28;20072;-79
2022/01/01 04:27:48;;;;;;;95.70;41.15;;;11.20;99.90;;;;;;5014114;28;20062;-78
2022/01/01 04:30:14;;;;;;;93.07;43.70;;;11.20;99.90;;;;;;5014214;28;20046;-79
2022/01/01 04:32:40;;;;;;;88.15;40.80;;;11.20;99.90;;;;;;5026665;28;20053;-80
2022/01/01 04:35:06;;;;;;;82.45;40.40;;;11.20;99.90;;;;;;5033754;28;20136;-79
2022/01/01 04:37:33;;;;;;;91.60;40.90;;;11.20;99.90;;;;;;5033304;28;20140;-80
2022/01/01 04:39:59;;;;;;;81.00;38.00;;;11.20;99.90;;;;;;5032461;28;20052;-79
2022/01/01 04:42:28;;;;;;;94.10;40.25;;;11.20;99.90;;;;;;5034067;28;20050;-78
2022/01/01 04:44:54;;;;;;;82.55;37.20;;;11.20;99.90;;;;;;5032418;28;20081;-78
2022/01/01 04:47:20;;;;;;;95.72;37.97;;;11.20;99.90;;;;;;5033642;28;20372;-79
2022/01/01 04:49:45;;;;;;;87.38;40.58;;;11.20;99.90;;;;;;5032349;28;20045;-77
2022/01/01 04:52:11;;;;;;;77.60;37.55;;;11.20;99.90;;;;;;5033585;28;20053;-79
2022/01/01 04:54:41;;;;;;;85.38;38.53;;;11.30;99.90;;;;;;5033206;28;20053;-79
2022/01/01 04:57:07;;;;;;;91.82;38.92;;;11.20;99.90;;;;;;5033473;28;20057;-79
2022/01/01 04:59:36;;;;;;;82.22;36.78;;;11.20;99.90;;;;;;5033431;28;20487;-78
2022/01/01 05:02:03;;;;;;;77.63;36.75;;;11.30;99.90;;;;;;5033297;28;20053;-79
2022/01/01 05:04:29;;;;;;;77.65;38.38;;;11.20;99.90;;;;;;5033272;28;20148;-79
2022/01/01 05:06:54;;;;;;;75.93;34.50;;;11.30;99.90;;;;;;5031577;28;20148;-79
2022/01/01 05:09:20;;;;;;;80.95;36.40;;;11.20;99.90;;;;;;5033203;28;20073;-78
2022/01/01 05:11:47;;;;;;;79.47;38.08;;;11.20;99.90;;;;;;5031947;28;20094;-78
2022/01/01 05:14:13;;;;;;;80.43;36.00;;;11.20;99.90;;;;;;5033111;28;20053;-79
2022/01/01 05:16:40;;;;;;;82.90;38.10;;;11.20;99.90;;;;;;5033127;28;20114;-79
2022/01/01 05:19:06;;;;;;;78.30;36.67;;;11.20;99.90;;;;;;5032696;28;20084;-78
2022/01/01 05:21:34;;;;;;;80.03;35.72;;;11.10;99.90;;;;;;5032915;28;20060;-79
2022/01/01 05:24:01;;;;;;;76.82;34.92;;;11.10;99.90;;;;;;5032968;28;20114;-79
2022/01/01 05:26:27;;;;;;;83.32;38.10;;;11.10;99.90;;;;;;5032807;28;20077;-80
2022/01/01 05:28:52;;;;;;;79.40;34.25;;;11.10;99.90;;;;;;5031471;28;20427;-79
2022/01/01 05:31:19;;;;;;;75.00;35.38;;;11.20;99.90;;;;;;5030337;28;20061;-79
2022/01/01 05:33:52;;;;;;;74.53;34.70;;;11.20;99.90;;;;;;5012842;28;20061;-77
2022/01/01 05:36:18;;;;;;;76.47;35.80;;;11.20;99.90;;;;;;4994873;28;20065;-78
2022/01/01 05:38:46;;;;;;;87.22;37.83;;;11.20;99.90;;;;;;5012816;28;20454;-78
2022/01/01 05:41:12;;;;;;;76.07;35.60;;;11.20;99.90;;;;;;5012889;28;20400;-79
2022/01/01 05:43:37;;;;;;;84.45;36.35;;;11.20;99.90;;;;;;5012941;28;20046;-78
2022/01/01 05:46:03;;;;;;;76.32;34.33;;;11.20;99.90;;;;;;5012734;28;20111;-80
2022/01/01 05:48:30;;;;;;;86.05;36.20;;;11.20;99.90;;;;;;5012433;28;20495;-78
2022/01/01 05:50:56;;;;;;;75.32;33.33;;;11.20;99.90;;;;;;5012801;28;20042;-79
2022/01/01 05:53:22;;;;;;;74.78;34.28;;;11.20;99.90;;;;;;5012785;28;20797;-79
2022/01/01 05:55:48;;;;;;;66.63;31.05;;;11.20;99.90;;;;;;5012701;28;20128;-79
2022/01/01 05:58:14;;;;;;;68.22;31.20;;;11.30;99.90;;;;;;5029432;28;20056;-79
2022/01/01 06:00:41;;;;;;;63.90;29.40;;;11.30;99.90;;;;;;5030952;28;20049;-78
2022/01/01 06:03:07;;;;;;;72.30;31.05;;;11.30;99.90;;;;;;5031152;28;20560;-79
2022/01/01 06:05:32;;;;;;;60.40;26.27;;;11.20;99.90;;;;;;5031108;28;20053;-80
2022/01/01 06:07:59;;;;;;;52.05;25.98;;;11.20;99.90;;;;;;5029760;28;20130;-80
2022/01/01 06:10:26;;;;;;;59.45;25.77;;;11.20;99.90;;;;;;5031613;28;20041;-80
2022/01/01 06:12:52;;;;;;;52.53;23.27;;;11.20;99.90;;;;;;5031719;28;20517;-78
2022/01/01 06:15:19;;;;;;;56.83;22.40;;;11.20;99.90;;;;;;5031960;28;20402;-80
2022/01/01 06:17:45;;;;;;;47.53;21.45;;;11.20;99.90;;;;;;5030883;28;20050;-80
2022/01/01 06:20:11;;;;;;;57.33;21.58;;;11.20;99.90;;;;;;5031054;28;20505;-78
2022/01/01 06:22:37;;;;;;;58.35;22.13;;;11.20;99.90;;;;;;5030105;28;20053;-79
2022/01/01 06:25:04;;;;;;;54.30;22.55;;;11.20;99.90;;;;;;5030926;28;20053;-81
2022/01/01 06:27:30;;;;;;;50.30;19.63;;;11.20;99.90;;;;;;5030951;28;20066;-79
2022/01/01 06:29:56;;;;;;;51.60;21.10;;;11.20;99.90;;;;;;5014503;28;20414;-80
2022/01/01 06:32:22;;;;;;;51.20;20.20;;;11.20;99.90;;;;;;5020351;28;20072;-80
2022/01/01 06:34:47;;;;;;;47.92;20.13;;;11.10;99.90;;;;;;5012132;28;20062;-78
2022/01/01 06:37:13;;;;;;;58.17;22.00;;;11.20;99.90;;;;;;5010315;28;20054;-78
2022/01/01 06:39:39;;;;;;;48.40;19.17;;;11.20;99.90;;;;;;5011877;28;20045;-79
2022/01/01 06:42:05;;;;;;;47.20;18.77;;;11.20;99.90;;;;;;5011606;28;20085;-80
2022/01/01 06:44:31;;;;;;;44.55;17.73;;;11.10;99.90;;;;;;5011681;28;20464;-79
2022/01/01 06:46:57;;;;;;;51.47;19.52;;;11.10;99.90;;;;;;5010489;28;20072;-79
2022/01/01 06:49:23;;;;;;;44.70;16.92;;;11.10;99.90;;;;;;5011777;28;20387;-79
2022/01/01 06:51:48;;;;;;;40.22;16.13;;;11.10;99.90;;;;;;5012086;28;20053;-79
2022/01/01 06:54:14;;;;;;;41.58;16.75;;;11.10;99.90;;;;;;5011988;28;20461;-79
2022/01/01 06:56:40;;;;;;;38.47;16.40;;;11.10;99.90;;;;;;5012035;28;20476;-78
2022/01/01 06:59:05;;;;;;;45.80;16.67;;;11.20;99.90;;;;;;5011585;28;20089;-79
2022/01/01 07:01:31;;;;;;;38.30;16.02;;;11.20;99.90;;;;;;4994323;28;20132;-79
2022/01/01 07:03:57;;;;;;;40.90;16.75;;;11.10;99.90;;;;;;5011881;28;20055;-79
2022/01/01 07:06:22;;;;;;;46.38;17.13;;;11.10;99.90;;;;;;5011619;28;20166;-77
2022/01/01 07:08:48;;;;;;;43.40;17.08;;;11.10;99.90;;;;;;5031183;28;20136;-78
2022/01/01 07:11:14;;;;;;;41.47;17.27;;;11.20;99.90;;;;;;5031601;28;20501;-78
2022/01/01 07:13:40;;;;;;;43.95;18.63;;;11.20;99.90;;;;;;5030198;28;20398;-79
2022/01/01 07:16:06;;;;;;;35.10;16.35;;;11.20;99.90;;;;;;5031322;28;20045;-78
2022/01/01 07:18:32;;;;;;;37.38;15.32;;;11.20;99.90;;;;;;5031244;28;20050;-79
2022/01/01 07:20:58;;;;;;;38.72;15.77;;;11.20;99.90;;;;;;5031423;28;20052;-78
2022/01/01 07:23:23;;;;;;;39.15;16.50;;;11.20;99.90;;;;;;5031095;28;20049;-79
2022/01/01 07:25:49;;;;;;;34.47;15.13;;;11.20;99.90;;;;;;5031064;28;20494;-72
2022/01/01 07:28:16;;;;;;;37.03;17.08;;;11.20;99.90;;;;;;5031247;28;20051;-73
2022/01/01 07:30:43;;;;;;;45.70;16.35;;;11.20;99.90;;;;;;5031447;28;20104;-73
2022/01/01 07:33:12;;;;;;;36.35;16.35;;;11.20;99.90;;;;;;5014274;28;20100;-73
2022/01/01 07:35:39;;;;;;;41.78;15.93;;;11.30;99.90;;;;;;5011531;28;20057;-72
2022/01/01 07:38:04;;;;;;;35.15;14.43;;;11.20;99.90;;;;;;5010932;28;20438;-72
2022/01/01 07:40:32;;;;;;;37.92;15.70;;;11.20;99.90;;;;;;5011557;28;20038;-72
2022/01/01 07:42:58;;;;;;;41.45;16.75;;;11.20;99.90;;;;;;5011561;28;20042;-72
2022/01/01 07:45:24;;;;;;;43.00;15.43;;;11.20;99.90;;;;;;5011407;28;20053;-73
2022/01/01 07:47:49;;;;;;;41.03;16.83;;;11.20;99.90;;;;;;5011266;28;20057;-72
2022/01/01 07:50:15;;;;;;;36.22;16.10;;;11.20;99.90;;;;;;5011082;28;20073;-73
2022/01/01 07:52:42;;;;;;;41.15;16.92;;;11.20;99.90;;;;;;5011432;28;20058;-78
2022/01/01 07:55:08;;;;;;;42.75;17.05;;;11.30;99.90;;;;;;5013738;28;20053;-73
2022/01/01 07:57:34;;;;;;;43.35;16.20;;;11.30;99.90;;;;;;5014910;28;20049;-74
2022/01/01 08:00:00;;;;;;;46.15;18.30;;;11.30;99.90;;;;;;5014638;28;20180;-73
2022/01/01 08:02:26;;;;;;;41.10;17.15;;;11.30;99.90;;;;;;5014344;28;20125;-74
2022/01/01 08:04:52;;;;;;;45.92;16.55;;;11.30;99.90;;;;;;5014481;28;20166;-73
2022/01/01 08:07:18;;;;;;;39.80;17.42;;;11.30;99.90;;;;;;5021719;28;20045;-74
2022/01/01 08:09:43;;;;;;;37.88;16.75;;;11.30;99.90;;;;;;5033756;28;20053;-73
2022/01/01 08:12:09;;;;;;;45.50;17.98;;;11.40;99.90;;;;;;5034392;28;20049;-73
2022/01/01 08:14:35;;;;;;;41.78;18.98;;;11.40;99.90;;;;;;5034180;28;20601;-73
2022/01/01 08:17:06;;;;;;;44.97;20.40;;;11.40;99.90;;;;;;5033955;28;20053;-74
2022/01/01 08:19:32;;;;;;;57.10;20.40;;;11.40;99.90;;;;;;5034347;28;20136;-73
2022/01/01 08:21:57;;;;;;;55.45;19.23;;;11.40;99.90;;;;;;5033793;28;20049;-73
2022/01/01 08:24:24;;;;;;;44.15;18.63;;;11.50;99.90;;;;;;5032464;28;20060;-73
2022/01/01 08:26:50;;;;;;;44.75;20.00;;;11.50;99.90;;;;;;5034073;28;20056;-74
2022/01/01 08:29:17;;;;;;;50.22;20.80;;;11.50;99.90;;;;;;5033744;28;20490;-74
2022/01/01 08:31:43;;;;;;;49.15;19.45;;;11.50;99.90;;;;;;5036748;28;20064;-73
2022/01/01 08:34:09;;;;;;;44.08;20.50;;;11.50;99.90;;;;;;5053562;28;20489;-73
2022/01/01 08:36:36;;;;;;;50.50;21.83;;;11.50;99.90;;;;;;5053185;28;20544;-73
2022/01/01 08:39:05;;;;;;;46.28;20.70;;;11.50;99.90;;;;;;5053402;28;20107;-73
2022/01/01 08:41:31;;;;;;;46.15;20.92;;;11.60;99.90;;;;;;5053306;28;20102;-74
2022/01/01 08:43:57;;;;;;;45.50;20.48;;;11.60;99.90;;;;;;5053728;28;20045;-73
2022/01/01 08:46:23;;;;;;;50.40;21.25;;;11.60;99.90;;;;;;5053600;28;20129;-73
2022/01/01 08:48:48;;;;;;;47.20;19.20;;;11.70;99.90;;;;;;5053202;28;20045;-74
2022/01/01 08:51:21;;;;;;;49.13;21.27;;;11.70;99.90;;;;;;5052777;28;20037;-73
2022/01/01 08:53:48;;;;;;;54.33;22.15;;;11.70;99.90;;;;;;5053517;28;20069;-73
2022/01/01 08:56:15;;;;;;;48.05;20.10;;;11.70;99.90;;;;;;5052330;28;20412;-73
2022/01/01 08:58:41;;;;;;;52.85;20.42;;;11.80;99.90;;;;;;5053287;28;20072;-73
2022/01/01 09:01:08;;;;;;;46.95;21.52;;;11.80;99.90;;;;;;5051929;28;20044;-73
2022/01/01 09:03:35;;;;;;;48.28;21.23;;;11.80;99.90;;;;;;5053225;28;20564;-73
2022/01/01 09:06:05;;;;;;;46.72;20.42;;;11.80;99.90;;;;;;5052116;28;20045;-73
2022/01/01 09:08:32;;;;;;;46.63;20.48;;;11.80;99.90;;;;;;5035037;28;20080;-73
2022/01/01 09:10:59;;;;;;;42.35;19.00;;;11.80;99.90;;;;;;5033187;28;20045;-73
2022/01/01 09:13:25;;;;;;;43.45;21.30;;;11.90;99.90;;;;;;5033076;28;20052;-74
2022/01/01 09:15:50;;;;;;;39.90;20.73;;;11.90;99.90;;;;;;5033159;28;20057;-80
2022/01/01 09:18:16;;;;;;;42.78;19.20;;;11.90;99.90;;;;;;5031088;28;20045;-82
2022/01/01 09:20:42;;;;;;;33.53;18.65;;;12.00;99.90;;;;;;5032767;28;20132;-81
2022/01/01 09:23:07;;;;;;;37.10;18.48;;;12.00;99.90;;;;;;5033150;28;20057;-81
2022/01/01 09:25:33;;;;;;;46.35;20.50;;;12.00;99.90;;;;;;5033044;28;20076;-82
2022/01/01 09:27:59;;;;;;;38.35;18.17;;;12.10;99.90;;;;;;5031775;28;20589;-83
2022/01/01 09:30:25;;;;;;;40.28;18.75;;;12.10;99.90;;;;;;5032570;28;20045;-82
2022/01/01 09:32:51;;;;;;;36.40;16.88;;;12.10;99.90;;;;;;5045628;28;20512;-82
2022/01/01 09:35:18;;;;;;;36.85;17.60;;;12.10;99.90;;;;;;5052621;28;20110;-81
2022/01/01 09:37:44;;;;;;;38.80;15.70;;;12.20;99.90;;;;;;5047815;28;20053;-80
2022/01/01 09:40:10;;;;;;;35.05;15.07;;;12.20;99.90;;;;;;5025613;28;20052;-86
2022/01/01 09:42:39;;;;;;;34.80;14.43;;;12.20;99.90;;;;;;5033082;28;20050;-85
2022/01/01 09:45:09;;;;;;;33.78;14.05;;;12.20;99.90;;;;;;5033632;28;20049;-87
2022/01/01 09:47:37;;;;;;;34.17;14.27;;;12.30;99.90;;;;;;5051246;28;20079;-86
2022/01/01 09:50:07;;;;;;;31.35;14.43;;;12.30;99.90;;;;;;5054575;28;20049;-86
2022/01/01 09:52:34;;;;;;;30.52;13.38;;;12.30;99.90;;;;;;5054304;28;20395;-88
2022/01/01 09:54:59;;;;;;;31.73;13.77;;;12.30;99.90;;;;;;5051808;28;20079;-86
2022/01/01 09:57:25;;;;;;;32.33;13.50;;;12.30;99.90;;;;;;5039538;28;20049;-85
2022/01/01 09:59:51;;;;;;;26.17;12.88;;;12.30;99.90;;;;;;5031835;28;20383;-83
2022/01/01 10:02:17;;;;;;;26.52;12.20;;;12.30;99.90;;;;;;5031817;28;20096;-82
2022/01/01 10:04:50;;;;;;;22.85;12.23;;;12.40;99.90;;;;;;5030953;28;20164;-83
2022/01/01 10:07:16;;;;;;;22.10;11.10;;;12.40;99.90;;;;;;5021854;28;20077;-87
2022/01/01 10:09:42;;;;;;;28.27;11.60;;;12.40;99.90;;;;;;5011922;28;20050;-83
2022/01/01 10:12:10;;;;;;;25.38;11.50;;;12.40;99.90;;;;;;5011480;28;20054;-87
2022/01/01 10:14:40;;;;;;;24.67;12.02;;;12.50;99.90;;;;;;5013229;28;20054;-84
2022/01/01 10:17:22;;;;;;;23.98;10.90;;;12.50;99.90;;;;;;5012394;28;20058;-86
2022/01/01 10:19:51;;;;;;;19.40;9.48;;;12.50;99.90;;;;;;5012775;28;20052;-84
2022/01/01 10:22:21;;;;;;;23.17;10.23;;;12.60;99.90;;;;;;5011381;28;20108;-87
2022/01/01 10:27:46;;;;;;;22.70;9.73;;;12.60;99.90;;;;;;5013517;28;20061;-90
2022/01/01 10:30:22;;;;;;;24.58;9.75;;;12.60;99.90;;;;;;5013817;28;20042;-85
2022/01/01 10:33:17;;;;;;;22.05;9.43;;;12.60;99.90;;;;;;5025770;28;20057;-91
2022/01/01 10:35:48;;;;;;;18.80;9.23;;;12.60;99.90;;;;;;5032246;28;20065;-87
2022/01/01 10:38:18;;;;;;;17.60;9.10;;;12.60;99.90;;;;;;5032885;28;20073;-88
2022/01/01 10:40:44;;;;;;;22.98;10.48;;;12.60;99.90;;;;;;5032443;28;20049;-88
2022/01/01 10:43:11;;;;;;;17.50;8.70;;;12.60;99.90;;;;;;5034310;28;20144;-87
2022/01/01 10:45:40;;;;;;;18.80;9.32;;;12.60;99.90;;;;;;5033298;28;20107;-91
2022/01/01 10:48:42;;;;;;;20.27;8.45;;;12.60;99.90;;;;;;5032745;28;20041;-88
2022/01/01 10:50:59;;;;;;;19.48;8.32;;;12.60;99.90;;;;;;5032826;28;20056;-86
2022/01/01 10:53:27;;;;;;;18.92;7.85;;;12.60;99.90;;;;;;5023130;28;21441;-83
2022/01/01 10:56:02;;;;;;;20.30;8.35;;;12.60;99.90;;;;;;5019459;28;20052;-90
2022/01/01 10:58:31;;;;;;;16.45;7.40;;;12.70;99.90;;;;;;5011947;28;20053;-85
2022/01/01 11:01:20;;;;;;;14.43;7.32;;;12.70;99.90;;;;;;5010508;28;20054;-85
2022/01/01 11:03:46;;;;;;;18.83;7.93;;;12.70;99.90;;;;;;5011942;28;20388;-85
2022/01/01 11:06:15;;;;;;;18.85;7.85;;;12.70;99.90;;;;;;5011824;28;20056;-85
2022/01/01 11:08:43;;;;;;;16.45;7.07;;;12.70;99.90;;;;;;5028692;28;20057;-88
2022/01/01 11:11:13;;;;;;;14.23;6.82;;;12.70;99.90;;;;;;5031305;28;20041;-87
2022/01/01 11:13:41;;;;;;;13.93;6.32;;;12.70;99.90;;;;;;5031083;28;20053;-84
2022/01/01 11:16:07;;;;;;;15.13;6.35;;;12.70;99.90;;;;;;5031246;28;20050;-87
2022/01/01 11:18:34;;;;;;;14.70;6.10;;;12.70;99.90;;;;;;5031241;28;20057;-87
2022/01/01 11:21:02;;;;;;;13.70;6.30;;;12.70;99.90;;;;;;5031420;28;20461;-86
2022/01/01 11:23:28;;;;;;;15.85;6.43;;;12.80;99.90;;;;;;5031778;28;20049;-87
2022/01/01 11:25:56;;;;;;;17.35;6.28;;;12.80;99.90;;;;;;5030182;28;20486;-91
2022/01/01 11:28:23;;;;;;;14.93;6.20;;;12.70;99.90;;;;;;5031508;28;20402;-87
2022/01/01 11:30:57;;;;;;;15.85;6.22;;;12.70;99.90;;;;;;5035363;28;20077;-85
2022/01/01 11:33:32;;;;;;;18.10;7.75;;;12.70;99.90;;;;;;5053906;28;20065;-89
2022/01/01 11:36:00;;;;;;;12.27;6.10;;;12.80;99.90;;;;;;5056000;28;20106;-87
2022/01/01 11:38:28;;;;;;;15.23;6.00;;;12.70;99.90;;;;;;5054836;28;20128;-91
2022/01/01 11:40:55;;;;;;;12.68;6.18;;;12.80;99.90;;;;;;5055762;28;20048;-90
2022/01/01 11:43:34;;;;;;;10.50;5.63;;;12.80;99.90;;;;;;5054950;28;20100;-86
2022/01/01 11:46:05;;;;;;;12.95;6.30;;;12.70;99.90;;;;;;5054845;28;20047;-90
2022/01/01 11:48:38;;;;;;;12.00;6.40;;;12.80;99.90;;;;;;5055717;28;20052;-88
2022/01/01 11:51:43;;;;;;;16.77;6.93;;;12.70;99.90;;;;;;5053756;28;20460;-90
2022/01/01 11:54:14;;;;;;;13.20;6.10;;;12.70;99.90;;;;;;5055378;28;20405;-87
2022/01/01 11:56:46;;;;;;;17.08;6.60;;;12.70;99.90;;;;;;5053935;28;20139;-88
2022/01/01 11:59:38;;;;;;;10.23;5.70;;;12.70;99.90;;;;;;5054922;28;20053;-86
2022/01/01 12:02:19;;;;;;;14.73;5.47;;;12.70;99.90;;;;;;5056072;28;20067;-88
2022/01/01 12:04:46;;;;;;;13.23;6.43;;;12.70;99.90;;;;;;5054840;28;20477;-87
2022/01/01 12:07:18;;;;;;;14.70;6.10;;;12.60;99.90;;;;;;5047199;28;20049;-86
2022/01/01 12:09:48;;;;;;;13.25;5.75;;;12.70;99.90;;;;;;5034816;28;20392;-84
2022/01/01 12:12:14;;;;;;;15.07;5.93;;;12.70;99.90;;;;;;5034597;28;20046;-87
2022/01/01 12:14:41;;;;;;;9.60;5.30;;;12.70;99.90;;;;;;5034162;28;20056;-87
2022/01/01 12:17:07;;;;;;;13.55;5.88;;;12.70;99.90;;;;;;5033903;28;20062;-88
2022/01/01 12:19:36;;;;;;;12.32;6.05;;;12.70;99.90;;;;;;5034412;28;20057;-92
2022/01/01 12:22:10;;;;;;;16.92;6.15;;;12.60;99.90;;;;;;5034412;28;20056;-89
2022/01/01 12:24:38;;;;;;;11.57;6.13;;;12.70;99.90;;;;;;5035242;28;20053;-89
2022/01/01 12:27:12;;;;;;;12.45;5.90;;;12.60;99.90;;;;;;5033832;28;20132;-88
2022/01/01 12:29:38;;;;;;;12.85;6.03;;;12.70;99.90;;;;;;5033236;28;20060;-87
2022/01/01 12:32:07;;;;;;;12.88;6.47;;;12.60;99.90;;;;;;5041917;28;20041;-86
2022/01/01 12:34:34;;;;;;;12.82;5.80;;;12.70;99.90;;;;;;5055007;28;20060;-90
2022/01/01 12:37:08;;;;;;;13.02;6.75;;;12.70;99.90;;;;;;5053029;28;20061;-87